Terminal Aerodrome Forecast
Issued by NWS Upton, NY

Home | Current Version | Previous Version | Text Only | Print | Product List | Glossary On
Versions: 1 2 3 4 5 6 7 8 9 10 11 12 13 14 15 16 17 18 19 20 21 22 23 24 25 26 27 28 29 30 31
000
FTUS41 KOKX 012300 RRA
TAFLGA
TAF
KLGA 012342Z 0200/0224 01012KT P6SM SCT015 BKN025
      TEMPO 0201/0204 BKN015
     FM020400 01012KT P6SM BKN015 BKN025
      TEMPO 0207/0211 5SM -SHRADZ BR
     FM021700 02014G20KT P6SM SCT015 OVC025
     FM022200 03010KT P6SM SCT025 SCT035=

USA.gov is the U.S. government's official web portal to all federal, state and local government web resources and services.